createdAt,value
2024-02-27T00:00:29.912Z,76.29
2024-02-27T00:02:59.430Z,76.24
2024-02-27T00:05:28.166Z,75.69
2024-02-27T00:07:56.885Z,75.70
2024-02-27T00:10:25.419Z,76.63
2024-02-27T00:12:54.009Z,76.33
2024-02-27T00:15:22.649Z,76.44
2024-02-27T00:17:51.441Z,76.12
2024-02-27T00:20:20.477Z,75.79
2024-02-27T00:22:49.125Z,76.98
2024-02-27T00:25:18.856Z,76.86
2024-02-27T00:27:48.523Z,77.26
2024-02-27T00:30:16.830Z,76.88
2024-02-27T00:32:45.477Z,77.25
2024-02-27T00:35:14.297Z,77.30
2024-02-27T00:37:42.891Z,77.02
2024-02-27T00:40:12.403Z,77.44
2024-02-27T00:42:43.928Z,78.23
2024-02-27T00:45:12.647Z,77.67
2024-02-27T00:47:41.297Z,77.60
2024-02-27T00:50:11.380Z,78.18
2024-02-27T00:52:40.329Z,78.71
2024-02-27T00:55:09.142Z,80.06
2024-02-27T00:57:38.002Z,78.70
2024-02-27T01:00:11.374Z,78.32
2024-02-27T01:02:40.193Z,79.04
2024-02-27T01:05:10.424Z,79.11
2024-02-27T01:07:39.837Z,79.02
2024-02-27T01:10:09.109Z,78.90
2024-02-27T01:12:37.951Z,79.03
2024-02-27T01:15:07.182Z,79.46
2024-02-27T01:17:35.955Z,79.13
2024-02-27T01:20:04.753Z,80.12
2024-02-27T01:22:34.506Z,79.02
2024-02-27T01:25:03.182Z,79.28
2024-02-27T01:27:32.350Z,79.27
2024-02-27T01:30:01.044Z,79.20
2024-02-27T01:32:29.768Z,79.89
2024-02-27T01:35:00.276Z,79.94
2024-02-27T01:37:29.052Z,80.41
2024-02-27T01:39:57.563Z,79.95
2024-02-27T01:42:26.238Z,80.16
2024-02-27T01:44:55.262Z,80.03
2024-02-27T01:47:25.091Z,80.17
2024-02-27T01:49:55.432Z,79.60
2024-02-27T01:52:25.067Z,80.08
2024-02-27T01:54:55.053Z,80.19
2024-02-27T01:57:24.698Z,80.27
2024-02-27T01:59:53.917Z,79.75
2024-02-27T02:02:22.641Z,80.05
2024-02-27T02:04:51.301Z,80.37
2024-02-27T02:07:20.845Z,80.49
2024-02-27T02:09:49.454Z,81.47
2024-02-27T02:12:18.528Z,81.18
2024-02-27T02:14:50.684Z,81.38
2024-02-27T02:17:19.059Z,81.90
2024-02-27T02:19:48.037Z,81.74
2024-02-27T02:22:16.677Z,81.79
2024-02-27T02:24:45.546Z,81.95
2024-02-27T02:27:17.984Z,82.08
2024-02-27T02:29:46.619Z,82.26
2024-02-27T02:32:15.203Z,82.14
2024-02-27T02:34:44.277Z,82.42
2024-02-27T02:37:12.992Z,82.15
2024-02-27T02:39:41.643Z,82.44
2024-02-27T02:42:10.368Z,82.82
2024-02-27T02:44:39.025Z,83.09
2024-02-27T02:47:07.735Z,82.75
2024-02-27T02:49:39.293Z,83.37
2024-02-27T02:52:09.729Z,83.14
2024-02-27T02:54:38.401Z,83.24
2024-02-27T02:57:07.132Z,83.33
2024-02-27T02:59:36.356Z,83.31
2024-02-27T03:02:05.196Z,83.64
2024-02-27T03:04:33.977Z,83.31
2024-02-27T03:07:02.818Z,83.10
2024-02-27T03:09:33.716Z,83.83
2024-02-27T03:12:03.767Z,83.80
2024-02-27T03:14:32.690Z,84.42
2024-02-27T03:17:01.438Z,84.59
2024-02-27T03:19:30.295Z,85.15
2024-02-27T03:21:58.944Z,85.32
2024-02-27T03:24:27.031Z,85.17
2024-02-27T03:26:55.681Z,85.71
2024-02-27T03:29:24.289Z,86.07
2024-02-27T03:31:52.975Z,85.96
2024-02-27T03:34:21.735Z,86.10
2024-02-27T03:36:50.441Z,86.43
2024-02-27T03:39:19.211Z,86.14
2024-02-27T03:41:47.843Z,86.64
2024-02-27T03:44:16.479Z,86.58
2024-02-27T03:46:45.467Z,86.59
2024-02-27T03:49:14.171Z,86.42
2024-02-27T03:51:42.839Z,86.41
2024-02-27T03:54:11.436Z,87.14
2024-02-27T03:56:40.628Z,86.95
2024-02-27T03:59:09.290Z,87.00
2024-02-27T04:01:37.888Z,86.97
2024-02-27T04:04:07.194Z,87.01
2024-02-27T04:06:36.003Z,87.14
2024-02-27T04:09:04.773Z,86.86
2024-02-27T04:11:33.452Z,87.12
2024-02-27T04:14:03.082Z,86.87
2024-02-27T04:16:31.622Z,87.48
2024-02-27T04:19:00.536Z,87.17
2024-02-27T04:21:29.281Z,87.03
2024-02-27T04:23:57.878Z,87.36
2024-02-27T04:26:26.515Z,87.28
2024-02-27T04:28:55.119Z,87.33
2024-02-27T04:31:23.074Z,86.89
2024-02-27T04:33:51.707Z,86.98
2024-02-27T04:36:22.086Z,86.94
2024-02-27T04:38:50.812Z,86.62
2024-02-27T04:41:19.416Z,87.17
2024-02-27T04:43:48.115Z,87.41
2024-02-27T04:46:16.750Z,86.78
2024-02-27T04:48:45.558Z,87.01
2024-02-27T04:51:14.189Z,86.73
2024-02-27T04:53:42.751Z,86.67
2024-02-27T04:56:11.492Z,86.63
2024-02-27T04:58:40.051Z,85.99
2024-02-27T05:01:15.652Z,86.53
2024-02-27T05:03:44.354Z,86.57
2024-02-27T05:06:13.027Z,86.34
2024-02-27T05:08:41.663Z,86.11
2024-02-27T05:11:10.251Z,86.19
2024-02-27T05:13:38.847Z,86.26
2024-02-27T05:16:09.422Z,86.45
2024-02-27T05:18:38.880Z,86.76
2024-02-27T05:21:08.337Z,86.81
2024-02-27T05:23:38.228Z,86.58
2024-02-27T05:26:06.929Z,86.63
2024-02-27T05:28:34.956Z,86.15
2024-02-27T05:31:03.875Z,86.66
2024-02-27T05:33:32.719Z,86.31
2024-02-27T05:36:01.492Z,87.42
2024-02-27T05:38:30.107Z,86.79
2024-02-27T05:40:58.664Z,86.72
2024-02-27T05:43:27.193Z,87.06
2024-02-27T05:45:55.853Z,86.81
2024-02-27T05:48:23.861Z,86.45
2024-02-27T05:50:52.484Z,86.83
2024-02-27T05:53:21.110Z,87.01
2024-02-27T05:55:49.683Z,87.16
2024-02-27T05:58:18.249Z,86.71
2024-02-27T06:00:48.152Z,87.01
2024-02-27T06:03:16.860Z,86.68
2024-02-27T06:05:45.592Z,86.88
2024-02-27T06:08:15.505Z,86.88
2024-02-27T06:10:44.491Z,87.16
2024-02-27T06:13:13.377Z,86.68
2024-02-27T06:15:42.096Z,86.87
2024-02-27T06:18:15.837Z,87.02
2024-02-27T06:21:03.575Z,86.83
2024-02-27T06:23:34.030Z,87.07
2024-02-27T06:26:02.651Z,87.15
2024-02-27T06:28:30.680Z,87.03
2024-02-27T06:30:59.292Z,86.86
2024-02-27T06:33:27.924Z,86.75
2024-02-27T06:35:56.652Z,87.16
2024-02-27T06:38:25.906Z,87.42
2024-02-27T06:40:54.460Z,87.25
2024-02-27T06:43:24.312Z,87.33
2024-02-27T06:45:53.614Z,87.48
2024-02-27T06:48:22.386Z,87.44
2024-02-27T06:50:57.308Z,87.06
2024-02-27T06:53:26.261Z,87.53
2024-02-27T06:55:54.842Z,88.03
2024-02-27T06:58:23.447Z,87.64
2024-02-27T07:00:52.137Z,88.21
2024-02-27T07:03:20.814Z,88.26
2024-02-27T07:05:53.624Z,87.61
2024-02-27T07:08:22.691Z,89.13
2024-02-27T07:10:51.490Z,89.06
2024-02-27T07:13:21.041Z,88.67
2024-02-27T07:15:50.206Z,89.01
2024-02-27T07:18:19.123Z,88.08
2024-02-27T07:20:47.773Z,87.47
2024-02-27T07:23:16.594Z,88.99
2024-02-27T07:25:45.293Z,89.04
2024-02-27T07:28:17.468Z,88.01
2024-02-27T07:30:52.869Z,88.13
2024-02-27T07:33:21.726Z,88.13
2024-02-27T07:35:52.315Z,87.31
2024-02-27T07:38:21.050Z,87.25
2024-02-27T07:40:49.626Z,87.36
2024-02-27T07:43:18.235Z,86.96
2024-02-27T07:45:46.495Z,85.95
2024-02-27T07:48:15.216Z,85.38
2024-02-27T07:50:44.162Z,85.65
2024-02-27T07:53:12.702Z,85.72
2024-02-27T07:55:44.087Z,85.71
2024-02-27T07:58:13.118Z,84.98
2024-02-27T08:00:41.725Z,85.91
2024-02-27T08:03:10.307Z,86.32
2024-02-27T08:05:39.004Z,86.60
2024-02-27T08:08:08.403Z,86.98
2024-02-27T08:10:37.097Z,85.39
2024-02-27T08:13:06.544Z,85.33
2024-02-27T08:15:35.179Z,86.16
2024-02-27T08:18:04.544Z,85.85
2024-02-27T08:20:33.263Z,85.48
2024-02-27T08:23:01.952Z,84.41
2024-02-27T08:25:31.132Z,85.95
2024-02-27T08:27:59.819Z,85.47
2024-02-27T08:30:28.475Z,84.18
2024-02-27T08:32:58.849Z,85.20
2024-02-27T08:35:28.029Z,85.40
2024-02-27T08:37:56.587Z,86.17
2024-02-27T08:40:25.286Z,86.89
2024-02-27T08:42:54.053Z,87.67
2024-02-27T08:45:23.113Z,86.61
2024-02-27T08:47:52.705Z,86.63
2024-02-27T08:50:23.145Z,85.18
2024-02-27T08:52:51.689Z,85.32
2024-02-27T08:55:20.288Z,85.28
2024-02-27T08:57:48.945Z,85.54
2024-02-27T09:00:18.647Z,84.38
2024-02-27T09:02:47.223Z,85.04
2024-02-27T09:05:16.225Z,85.24
2024-02-27T09:07:44.926Z,85.54
2024-02-27T09:10:14.209Z,84.92
2024-02-27T09:12:43.944Z,84.52
2024-02-27T09:15:13.246Z,85.24
2024-02-27T09:17:42.044Z,85.75
2024-02-27T09:20:11.268Z,86.65
2024-02-27T09:22:40.674Z,87.12
2024-02-27T09:25:09.653Z,86.45
2024-02-27T09:27:38.406Z,85.07
2024-02-27T09:30:07.624Z,84.90
2024-02-27T09:32:36.451Z,86.70
2024-02-27T09:35:05.838Z,87.31
2024-02-27T09:37:34.458Z,87.95
2024-02-27T09:40:03.061Z,87.94
2024-02-27T09:42:35.828Z,85.77
2024-02-27T09:45:08.593Z,85.30
2024-02-27T09:47:42.131Z,86.69
2024-02-27T09:50:11.154Z,87.75
2024-02-27T09:52:40.888Z,87.10
2024-02-27T09:55:11.050Z,87.45
2024-02-27T09:57:39.938Z,86.54
2024-02-27T10:00:09.545Z,86.92
2024-02-27T10:02:40.079Z,87.08
2024-02-27T10:05:10.851Z,86.95
2024-02-27T10:07:42.011Z,86.05
2024-02-27T10:10:13.121Z,87.58
2024-02-27T10:12:41.741Z,87.57
2024-02-27T10:15:10.854Z,87.79
2024-02-27T10:17:41.596Z,87.40
2024-02-27T10:20:15.779Z,87.41
2024-02-27T10:22:44.385Z,87.98
2024-02-27T10:25:13.760Z,87.88
2024-02-27T10:27:44.795Z,87.36
2024-02-27T10:30:17.496Z,87.05
2024-02-27T10:32:46.616Z,86.93
2024-02-27T10:35:18.413Z,87.26
2024-02-27T10:37:46.977Z,86.95
2024-02-27T10:40:15.653Z,84.72
2024-02-27T10:42:45.334Z,84.35
2024-02-27T10:45:14.546Z,84.91
2024-02-27T10:47:47.540Z,83.72
2024-02-27T10:50:18.563Z,83.77
2024-02-27T10:52:49.304Z,85.15
2024-02-27T10:55:22.464Z,84.97
2024-02-27T10:57:52.544Z,85.59
2024-02-27T11:00:21.666Z,83.77
2024-02-27T11:02:55.199Z,84.90
2024-02-27T11:05:25.918Z,84.80
2024-02-27T11:07:59.799Z,85.07
2024-02-27T11:10:33.054Z,84.56
2024-02-27T11:13:02.689Z,84.66
2024-02-27T11:15:32.946Z,85.54
2024-02-27T11:18:10.308Z,86.00
2024-02-27T11:20:41.616Z,85.62
2024-02-27T11:23:10.873Z,86.03
2024-02-27T11:25:39.811Z,86.15
2024-02-27T11:28:09.155Z,86.31
2024-02-27T11:30:39.587Z,85.54
2024-02-27T11:33:11.534Z,83.85
2024-02-27T11:35:40.604Z,83.86
2024-02-27T11:38:09.549Z,83.33
2024-02-27T11:40:51.395Z,82.83
2024-02-27T11:43:23.015Z,82.86
2024-02-27T11:45:51.780Z,84.30
2024-02-27T11:48:40.356Z,84.99
2024-02-27T11:51:09.037Z,85.94
2024-02-27T11:53:39.459Z,85.45
2024-02-27T11:56:10.059Z,85.00
2024-02-27T11:58:39.442Z,84.18
2024-02-27T12:01:09.746Z,84.67
2024-02-27T12:03:38.354Z,84.39
2024-02-27T12:06:09.830Z,85.52
2024-02-27T12:08:49.855Z,85.43
2024-02-27T12:11:19.712Z,85.01
2024-02-27T12:13:52.313Z,84.08
2024-02-27T12:16:28.352Z,84.32
2024-02-27T12:18:58.670Z,84.02
2024-02-27T12:21:34.670Z,83.49
2024-02-27T12:24:32.547Z,82.98
2024-02-27T12:27:01.328Z,85.39
2024-02-27T12:29:29.972Z,84.45
2024-02-27T12:31:58.550Z,84.17
2024-02-27T12:34:38.416Z,84.86
2024-02-27T12:37:07.259Z,85.65
2024-02-27T12:39:36.547Z,85.21
2024-02-27T12:42:05.583Z,86.41
2024-02-27T12:44:33.983Z,87.64
2024-02-27T12:47:02.620Z,87.86
2024-02-27T12:49:31.563Z,86.20
2024-02-27T12:52:00.343Z,85.96
2024-02-27T12:54:29.318Z,85.29
2024-02-27T12:56:58.233Z,85.10
2024-02-27T12:59:27.298Z,85.01
2024-02-27T13:01:58.180Z,84.74
2024-02-27T13:04:26.766Z,84.47
2024-02-27T13:06:55.443Z,85.21
2024-02-27T13:09:24.121Z,84.77
2024-02-27T13:11:53.425Z,85.10
2024-02-27T13:14:22.090Z,84.42
2024-02-27T13:16:50.855Z,84.67
2024-02-27T13:19:19.702Z,85.11
2024-02-27T13:21:48.570Z,85.02
2024-02-27T13:24:17.295Z,84.83
2024-02-27T13:26:45.707Z,84.86
2024-02-27T13:29:14.489Z,84.64
2024-02-27T13:31:43.171Z,84.14
2024-02-27T13:34:11.794Z,84.14
2024-02-27T13:36:40.338Z,84.60
2024-02-27T13:39:10.839Z,84.67
2024-02-27T13:41:40.293Z,84.55
2024-02-27T13:44:09.059Z,84.63
2024-02-27T13:46:37.696Z,84.39
2024-02-27T13:49:06.446Z,84.64
2024-02-27T13:51:35.440Z,84.74
2024-02-27T13:54:06.346Z,84.33
2024-02-27T13:56:35.194Z,84.77
2024-02-27T13:59:03.838Z,84.51
2024-02-27T14:01:33.802Z,83.91
2024-02-27T14:04:02.667Z,84.04
2024-02-27T14:06:31.364Z,84.14
2024-02-27T14:09:00.036Z,83.70
2024-02-27T14:11:28.799Z,83.36
2024-02-27T14:14:03.905Z,83.10
2024-02-27T14:16:41.212Z,82.60
2024-02-27T14:19:10.824Z,82.30
2024-02-27T14:21:39.634Z,81.92
2024-02-27T14:24:08.567Z,82.39
2024-02-27T14:26:37.702Z,82.31
2024-02-27T14:29:06.482Z,83.33
2024-02-27T14:31:35.229Z,82.92
2024-02-27T14:34:04.014Z,83.54
2024-02-27T14:36:32.772Z,83.24
2024-02-27T14:39:01.377Z,83.29
2024-02-27T14:41:29.948Z,83.50
2024-02-27T14:43:58.650Z,83.40
2024-02-27T14:46:27.283Z,83.54
2024-02-27T14:48:55.994Z,82.95
2024-02-27T14:51:24.678Z,82.74
2024-02-27T14:53:53.300Z,82.63
2024-02-27T14:56:21.922Z,82.43
2024-02-27T14:58:50.601Z,82.47
2024-02-27T15:01:19.411Z,82.37
2024-02-27T15:03:48.110Z,82.20
2024-02-27T15:06:19.003Z,81.93
2024-02-27T15:08:48.523Z,82.08
2024-02-27T15:11:17.739Z,81.94
2024-02-27T15:13:46.274Z,82.36
2024-02-27T15:16:15.137Z,82.44
2024-02-27T15:18:44.064Z,82.82
2024-02-27T15:21:12.689Z,83.10
2024-02-27T15:23:41.089Z,82.44
2024-02-27T15:26:09.767Z,82.91
2024-02-27T15:28:38.477Z,83.21
2024-02-27T15:31:07.159Z,83.06
2024-02-27T15:33:35.977Z,83.00
2024-02-27T15:36:04.646Z,83.66
2024-02-27T15:38:33.223Z,83.58
2024-02-27T15:41:03.327Z,83.74
2024-02-27T15:43:33.894Z,83.35
2024-02-27T15:46:02.578Z,83.26
2024-02-27T15:48:31.659Z,83.11
2024-02-27T15:51:00.328Z,83.19
2024-02-27T15:53:28.906Z,82.29
2024-02-27T15:55:57.532Z,82.41
2024-02-27T15:58:26.213Z,82.50
2024-02-27T16:00:54.850Z,82.35
2024-02-27T16:03:41.829Z,82.10
2024-02-27T16:06:13.682Z,81.69
2024-02-27T16:08:42.305Z,82.06
2024-02-27T16:11:11.004Z,82.35
2024-02-27T16:13:39.580Z,81.98
2024-02-27T16:16:08.386Z,82.06
2024-02-27T16:18:37.124Z,82.08
2024-02-27T16:21:06.089Z,81.48
2024-02-27T16:23:34.528Z,81.89
2024-02-27T16:26:03.287Z,81.87
2024-02-27T16:28:33.027Z,80.92
2024-02-27T16:31:01.848Z,80.84
2024-02-27T16:33:30.794Z,81.75
2024-02-27T16:35:59.541Z,80.55
2024-02-27T16:38:28.098Z,81.44
2024-02-27T16:40:56.733Z,81.01
2024-02-27T16:43:25.332Z,80.75
2024-02-27T16:45:53.967Z,80.56
2024-02-27T16:48:22.847Z,80.10
2024-02-27T16:50:51.510Z,80.17
2024-02-27T16:53:20.084Z,80.32
2024-02-27T16:55:48.795Z,80.60
2024-02-27T16:58:16.700Z,80.99
2024-02-27T17:00:45.469Z,81.04
2024-02-27T17:03:14.466Z,79.43
2024-02-27T17:05:43.100Z,79.66
2024-02-27T17:08:11.645Z,79.30
2024-02-27T17:10:40.709Z,79.99
2024-02-27T17:13:09.277Z,79.87
2024-02-27T17:15:38.550Z,78.91
2024-02-27T17:18:07.991Z,78.59
2024-02-27T17:20:36.501Z,79.23
2024-02-27T17:23:05.244Z,80.18
2024-02-27T17:25:33.816Z,80.19
2024-02-27T17:28:02.692Z,80.00
2024-02-27T17:30:31.249Z,80.26
2024-02-27T17:32:59.984Z,80.33
2024-02-27T17:35:28.677Z,80.32
2024-02-27T17:37:57.210Z,79.80
2024-02-27T17:40:25.787Z,79.75
2024-02-27T17:42:54.725Z,79.58
2024-02-27T17:45:24.192Z,79.04
2024-02-27T17:47:52.900Z,79.28
2024-02-27T17:50:21.260Z,79.45
2024-02-27T17:52:49.793Z,78.83
2024-02-27T17:55:18.828Z,78.43
2024-02-27T17:57:47.519Z,77.98
2024-02-27T18:00:16.456Z,77.88
2024-02-27T18:02:45.116Z,77.57
2024-02-27T18:05:13.701Z,78.08
2024-02-27T18:07:42.334Z,77.32
2024-02-27T18:10:11.430Z,77.24
2024-02-27T18:12:40.148Z,76.70
2024-02-27T18:15:10.650Z,77.22
2024-02-27T18:17:39.840Z,77.50
2024-02-27T18:20:08.858Z,77.25
2024-02-27T18:22:37.524Z,76.91
2024-02-27T18:25:08.615Z,74.24
2024-02-27T18:27:38.765Z,74.78
2024-02-27T18:30:07.630Z,77.17
2024-02-27T18:32:36.409Z,76.83
2024-02-27T18:35:05.641Z,75.20
2024-02-27T18:37:34.289Z,77.31
2024-02-27T18:40:03.188Z,75.04
2024-02-27T18:42:32.056Z,76.00
2024-02-27T18:45:00.924Z,77.04
2024-02-27T18:47:29.561Z,75.48
2024-02-27T18:50:00.824Z,76.95
2024-02-27T18:52:29.438Z,75.57
2024-02-27T18:54:58.180Z,75.89
2024-02-27T18:57:26.823Z,75.78
2024-02-27T18:59:55.460Z,74.93
2024-02-27T19:02:24.045Z,75.33
2024-02-27T19:04:52.599Z,74.65
2024-02-27T19:07:21.191Z,74.51
2024-02-27T19:09:49.967Z,76.77
2024-02-27T19:12:19.124Z,74.67
2024-02-27T19:14:47.771Z,75.66
2024-02-27T19:17:16.498Z,76.56
2024-02-27T19:19:45.001Z,77.25
2024-02-27T19:22:13.835Z,75.60
2024-02-27T19:24:42.551Z,75.90
2024-02-27T19:27:15.262Z,76.55
2024-02-27T19:29:44.909Z,74.28
2024-02-27T19:32:13.526Z,75.97
2024-02-27T19:34:41.974Z,75.54
2024-02-27T19:37:10.557Z,76.33
2024-02-27T19:39:39.152Z,77.06
2024-02-27T19:42:08.429Z,75.72
2024-02-27T19:44:37.174Z,74.14
2024-02-27T19:47:08.707Z,75.44
2024-02-27T19:49:38.941Z,76.10
2024-02-27T19:52:07.904Z,74.89
2024-02-27T19:54:37.161Z,74.85
2024-02-27T19:57:06.196Z,74.38
2024-02-27T19:59:34.778Z,74.76
2024-02-27T20:02:03.385Z,73.53
2024-02-27T20:04:32.252Z,75.66
2024-02-27T20:07:00.872Z,73.97
2024-02-27T20:09:28.910Z,73.15
2024-02-27T20:11:57.604Z,75.38
2024-02-27T20:14:25.576Z,73.70
2024-02-27T20:16:54.421Z,74.03
2024-02-27T20:19:22.972Z,72.06
2024-02-27T20:21:51.612Z,73.03
2024-02-27T20:24:20.234Z,74.00
2024-02-27T20:26:48.924Z,74.51
2024-02-27T20:29:17.565Z,75.01
2024-02-27T20:31:46.228Z,71.76
2024-02-27T20:34:15.665Z,75.33
2024-02-27T20:36:44.675Z,75.29
2024-02-27T20:39:12.905Z,72.77
2024-02-27T20:41:41.501Z,71.48
2024-02-27T20:44:10.096Z,71.36
2024-02-27T20:46:38.725Z,73.83
2024-02-27T20:49:07.407Z,72.94
2024-02-27T20:51:36.172Z,71.96
2024-02-27T20:54:04.821Z,72.05
2024-02-27T20:56:33.399Z,74.75
2024-02-27T20:59:01.916Z,72.71
2024-02-27T21:01:30.553Z,71.30
2024-02-27T21:03:59.098Z,72.18
2024-02-27T21:06:27.653Z,70.99
2024-02-27T21:08:56.673Z,70.92
2024-02-27T21:11:25.890Z,70.77
2024-02-27T21:13:54.497Z,71.47
2024-02-27T21:16:23.738Z,71.49
2024-02-27T21:18:52.624Z,71.11
2024-02-27T21:21:21.258Z,71.76
2024-02-27T21:23:50.242Z,72.15
2024-02-27T21:26:18.885Z,71.14
2024-02-27T21:28:47.452Z,73.29
2024-02-27T21:31:16.104Z,73.72
2024-02-27T21:33:44.780Z,72.91
2024-02-27T21:36:13.749Z,73.22
2024-02-27T21:38:42.597Z,74.41
2024-02-27T21:41:11.901Z,71.65
2024-02-27T21:43:40.435Z,73.77
2024-02-27T21:46:09.593Z,74.68
2024-02-27T21:48:38.320Z,74.69
2024-02-27T21:51:07.746Z,75.67
2024-02-27T21:53:36.344Z,74.52
2024-02-27T21:56:05.083Z,73.56
2024-02-27T21:58:33.726Z,72.95
2024-02-27T22:01:02.308Z,73.45
2024-02-27T22:03:31.162Z,71.64
2024-02-27T22:05:59.711Z,71.66
2024-02-27T22:08:28.387Z,72.00
2024-02-27T22:10:57.001Z,70.80
2024-02-27T22:13:25.529Z,70.90
2024-02-27T22:15:54.235Z,71.98
2024-02-27T22:18:23.068Z,72.50
2024-02-27T22:20:51.776Z,72.22
2024-02-27T22:23:20.512Z,71.00
2024-02-27T22:25:52.410Z,70.22
2024-02-27T22:28:21.267Z,72.96
2024-02-27T22:30:49.953Z,71.91
2024-02-27T22:33:18.739Z,72.55
2024-02-27T22:35:48.058Z,71.60
2024-02-27T22:38:16.723Z,72.34
2024-02-27T22:40:46.188Z,72.20
2024-02-27T22:43:15.046Z,71.04
2024-02-27T22:45:46.792Z,70.36
2024-02-27T22:48:15.483Z,69.97
2024-02-27T22:50:45.512Z,69.28
2024-02-27T22:53:14.227Z,69.98
2024-02-27T22:55:42.811Z,70.38
2024-02-27T22:58:11.897Z,70.63
2024-02-27T23:00:40.848Z,68.89
2024-02-27T23:03:11.140Z,70.85
2024-02-27T23:05:39.719Z,70.31
2024-02-27T23:08:08.688Z,70.37
2024-02-27T23:10:37.270Z,70.60
2024-02-27T23:13:07.179Z,70.55
2024-02-27T23:15:36.797Z,70.75
2024-02-27T23:18:05.829Z,71.05
2024-02-27T23:20:34.782Z,72.81
2024-02-27T23:23:03.380Z,71.67
2024-02-27T23:25:31.897Z,70.83
2024-02-27T23:28:00.538Z,70.98
2024-02-27T23:30:29.109Z,72.03
2024-02-27T23:32:57.791Z,71.19
2024-02-27T23:35:26.335Z,72.98
2024-02-27T23:37:54.971Z,71.73
2024-02-27T23:40:23.537Z,72.86
2024-02-27T23:42:52.192Z,74.84
2024-02-27T23:45:20.965Z,74.01
2024-02-27T23:47:49.579Z,73.20
2024-02-27T23:50:20.924Z,72.56
2024-02-27T23:52:49.320Z,73.38
2024-02-27T23:55:20.676Z,73.25
2024-02-27T23:57:49.441Z,74.45
